createdAt,value
2018-09-29T00:00:02.531Z,50.65
2018-09-29T00:01:02.413Z,49.33
2018-09-29T00:02:02.831Z,49.25
2018-09-29T00:03:02.650Z,49.24
2018-09-29T00:04:02.537Z,49.25
2018-09-29T00:05:02.508Z,49.66
2018-09-29T00:06:02.519Z,49.83
2018-09-29T00:07:02.666Z,49.73
2018-09-29T00:08:02.815Z,49.93
2018-09-29T00:09:02.486Z,49.79
2018-09-29T00:10:02.679Z,50.1
2018-09-29T00:11:02.413Z,50.49
2018-09-29T00:12:02.405Z,49.94
2018-09-29T00:13:02.396Z,50.28
2018-09-29T00:14:02.487Z,50.34
2018-09-29T00:15:03.239Z,50.42
2018-09-29T00:16:02.445Z,50.61
2018-09-29T00:17:02.516Z,50.44
2018-09-29T00:18:02.515Z,50.45
2018-09-29T00:19:02.444Z,50.68
2018-09-29T00:20:02.396Z,50.86
2018-09-29T00:21:02.369Z,50.78
2018-09-29T00:22:02.387Z,50.32
2018-09-29T00:23:02.353Z,50.65
2018-09-29T00:24:02.468Z,50.56
2018-09-29T00:25:02.824Z,50.09
2018-09-29T00:26:02.425Z,50.49
2018-09-29T00:27:02.523Z,50.5
2018-09-29T00:28:02.461Z,50.5
2018-09-29T00:29:02.540Z,50.84
2018-09-29T00:30:02.366Z,51
2018-09-29T00:31:02.382Z,51.23
2018-09-29T00:32:02.498Z,51.72
2018-09-29T00:33:02.393Z,52.38
2018-09-29T00:34:02.804Z,53.39
2018-09-29T00:35:02.392Z,53.45
2018-09-29T00:36:02.353Z,53.45
2018-09-29T00:37:02.370Z,53.3
2018-09-29T00:38:02.496Z,53.35
2018-09-29T00:39:02.354Z,53.4
2018-09-29T00:40:02.404Z,53.71
2018-09-29T00:41:02.625Z,54.4
2018-09-29T00:42:02.353Z,54.43
2018-09-29T00:43:02.348Z,54.45
2018-09-29T00:44:02.345Z,54.42
2018-09-29T00:45:02.624Z,54.39
2018-09-29T00:46:02.344Z,55.16
2018-09-29T00:47:02.518Z,55.32
2018-09-29T00:48:02.496Z,55.47
2018-09-29T00:49:02.394Z,55.48
2018-09-29T00:50:02.356Z,55.58
2018-09-29T00:51:02.469Z,55.68
2018-09-29T00:52:02.627Z,55.98
2018-09-29T00:53:02.336Z,56.48
2018-09-29T00:54:02.308Z,56.74
2018-09-29T00:55:02.390Z,57.05
2018-09-29T00:56:02.376Z,56.89
2018-09-29T00:57:02.431Z,56.96
2018-09-29T00:58:02.360Z,57.35
2018-09-29T00:59:02.413Z,57.88
2018-09-29T01:00:02.308Z,57.67
2018-09-29T01:01:02.487Z,57.58
2018-09-29T01:02:02.370Z,57.38
2018-09-29T01:03:02.453Z,57.02
2018-09-29T01:04:02.743Z,57.1
2018-09-29T01:05:02.559Z,57.27
2018-09-29T01:06:02.382Z,57.11
2018-09-29T01:07:02.352Z,57.85
2018-09-29T01:08:02.298Z,57.76
2018-09-29T01:09:02.321Z,58.55
2018-09-29T01:10:02.316Z,59.14
2018-09-29T01:11:02.307Z,59.33
2018-09-29T01:12:02.312Z,59.31
2018-09-29T01:13:02.312Z,59.1
2018-09-29T01:14:02.319Z,59.05
2018-09-29T01:15:02.286Z,59.1
2018-09-29T01:16:02.312Z,59.64
2018-09-29T01:17:02.415Z,60.08
2018-09-29T01:18:02.573Z,60.54
2018-09-29T01:19:02.327Z,60.29
2018-09-29T01:20:02.321Z,60.3
2018-09-29T01:21:02.294Z,60.24
2018-09-29T01:22:02.294Z,60.21
2018-09-29T01:23:02.315Z,59.98
2018-09-29T01:24:02.283Z,59.89
2018-09-29T01:25:02.284Z,59.62
2018-09-29T01:26:02.275Z,59.74
2018-09-29T01:27:02.273Z,59.84
2018-09-29T01:28:02.319Z,60.52
2018-09-29T01:29:02.323Z,60.51
2018-09-29T01:30:02.337Z,60.31
2018-09-29T01:31:02.423Z,60.7
2018-09-29T01:32:02.524Z,60.85
2018-09-29T01:33:02.487Z,60.9
2018-09-29T01:34:02.432Z,60.65
2018-09-29T01:35:02.410Z,60.58
2018-09-29T01:36:02.401Z,60.5
2018-09-29T01:37:02.248Z,60.27
2018-09-29T01:38:02.795Z,60.22
2018-09-29T01:39:02.311Z,59.82
2018-09-29T01:40:02.345Z,59.68
2018-09-29T01:41:02.350Z,59.82
2018-09-29T01:42:02.489Z,59.75
2018-09-29T01:43:02.253Z,59.59
2018-09-29T01:44:02.260Z,59.56
2018-09-29T01:45:02.409Z,59.63
2018-09-29T01:46:02.310Z,59.86
2018-09-29T01:47:02.261Z,60.13
2018-09-29T01:48:02.344Z,60.38
2018-09-29T01:49:02.702Z,60.57
2018-09-29T01:50:02.420Z,60.45
2018-09-29T01:51:02.561Z,60.37
2018-09-29T01:52:02.250Z,60.44
2018-09-29T01:53:02.681Z,60.29
2018-09-29T01:54:02.311Z,60.88
2018-09-29T01:55:02.476Z,60.71
2018-09-29T01:56:02.482Z,61.04
2018-09-29T01:57:02.520Z,61.76
2018-09-29T01:58:02.410Z,60.74
2018-09-29T01:59:02.279Z,61.05
2018-09-29T02:00:02.361Z,61.12
2018-09-29T02:01:02.357Z,61.34
2018-09-29T02:02:02.324Z,61.3
2018-09-29T02:03:02.417Z,61.08
2018-09-29T02:04:02.264Z,61.21
2018-09-29T02:05:02.356Z,61.01
2018-09-29T02:06:02.228Z,61.28
2018-09-29T02:07:02.449Z,61.09
2018-09-29T02:08:02.824Z,61.16
2018-09-29T02:09:02.263Z,61.33
2018-09-29T02:10:02.380Z,61.33
2018-09-29T02:11:02.318Z,61.29
2018-09-29T02:12:02.319Z,61.28
2018-09-29T02:13:02.239Z,61.6
2018-09-29T02:14:02.308Z,62.2
2018-09-29T02:15:02.563Z,62.29
2018-09-29T02:16:02.353Z,62.24
2018-09-29T02:17:02.306Z,62.9
2018-09-29T02:18:02.208Z,62.53
2018-09-29T02:19:02.638Z,62.2
2018-09-29T02:20:02.205Z,62.6
2018-09-29T02:21:02.669Z,62.11
2018-09-29T02:22:02.282Z,62.31
2018-09-29T02:23:02.188Z,62.4
2018-09-29T02:24:02.209Z,63.02
2018-09-29T02:25:02.375Z,62.74
2018-09-29T02:26:02.196Z,62.84
2018-09-29T02:27:02.231Z,61.37
2018-09-29T02:28:02.290Z,61.83
2018-09-29T02:29:02.504Z,61.9
2018-09-29T02:30:02.265Z,61.49
2018-09-29T02:31:02.191Z,61.08
2018-09-29T02:32:02.183Z,60.02
2018-09-29T02:33:02.431Z,60.42
2018-09-29T02:34:02.178Z,61.01
2018-09-29T02:35:02.238Z,61.06
2018-09-29T02:36:02.180Z,61.25
2018-09-29T02:37:02.303Z,60.66
2018-09-29T02:38:02.191Z,60.69
2018-09-29T02:39:02.164Z,60.52
2018-09-29T02:40:02.161Z,60.13
2018-09-29T02:41:02.174Z,60.27
2018-09-29T02:42:02.148Z,60.35
2018-09-29T02:43:04.572Z,60.26
2018-09-29T02:44:02.166Z,60.39
2018-09-29T02:45:02.181Z,60.27
2018-09-29T02:46:02.161Z,60.47
2018-09-29T02:47:02.183Z,60.63
2018-09-29T02:48:02.239Z,60.55
2018-09-29T02:49:02.541Z,60.89
2018-09-29T02:50:02.319Z,60.83
2018-09-29T02:51:02.267Z,60.84
2018-09-29T02:52:02.245Z,60.65
2018-09-29T02:53:02.201Z,60.83
2018-09-29T02:54:02.159Z,60.73
2018-09-29T02:55:02.433Z,60.67
2018-09-29T02:56:02.323Z,59.94
2018-09-29T02:57:02.180Z,60.18
2018-09-29T02:58:02.143Z,60.7
2018-09-29T02:59:02.121Z,60.64
2018-09-29T03:00:02.158Z,60.61
2018-09-29T03:01:02.187Z,61.05
2018-09-29T03:02:02.145Z,61.26
2018-09-29T03:03:02.215Z,61.5
2018-09-29T03:04:02.340Z,61.54
2018-09-29T03:05:02.687Z,61.27
2018-09-29T03:06:02.372Z,61.41
2018-09-29T03:07:02.354Z,61.18
2018-09-29T03:08:02.562Z,61.19
2018-09-29T03:09:02.402Z,61.21
2018-09-29T03:10:02.110Z,61.07
2018-09-29T03:11:02.183Z,61.07
2018-09-29T03:12:02.135Z,60.84
2018-09-29T03:13:02.096Z,60.58
2018-09-29T03:14:02.224Z,60.42
2018-09-29T03:15:02.268Z,60.36
2018-09-29T03:16:02.109Z,60.04
2018-09-29T03:17:02.247Z,60.22
2018-09-29T03:18:02.202Z,60.09
2018-09-29T03:19:02.515Z,59.67
2018-09-29T03:20:02.386Z,59.91
2018-09-29T03:21:02.176Z,59.95
2018-09-29T03:22:02.129Z,59.86
2018-09-29T03:23:02.459Z,59.86
2018-09-29T03:24:02.068Z,59.96
2018-09-29T03:25:02.182Z,59.66
2018-09-29T03:26:02.523Z,59.4
2018-09-29T03:27:02.391Z,59.39
2018-09-29T03:28:02.207Z,59.25
2018-09-29T03:29:02.406Z,59.38
2018-09-29T03:30:02.154Z,59.39
2018-09-29T03:31:02.130Z,59.39
2018-09-29T03:32:02.196Z,59.37
2018-09-29T03:33:02.135Z,59.25
2018-09-29T03:34:02.343Z,59.28
2018-09-29T03:35:02.122Z,59.25
2018-09-29T03:36:02.263Z,59.42
2018-09-29T03:37:02.615Z,59.48
2018-09-29T03:38:02.110Z,59.48
2018-09-29T03:39:02.217Z,59.63
2018-09-29T03:40:02.121Z,59.57
2018-09-29T03:41:02.140Z,59.82
2018-09-29T03:42:02.177Z,59.56
2018-09-29T03:43:02.315Z,59.69
2018-09-29T03:44:02.652Z,59.67
2018-09-29T03:45:02.168Z,59.9
2018-09-29T03:46:02.120Z,59.68
2018-09-29T03:47:02.125Z,59.39
2018-09-29T03:48:02.436Z,59.42
2018-09-29T03:49:02.355Z,59.44
2018-09-29T03:50:02.217Z,59.51
2018-09-29T03:51:02.479Z,59.9
2018-09-29T03:52:02.080Z,59.9
2018-09-29T03:53:02.137Z,59.95
2018-09-29T03:54:02.123Z,59.77
2018-09-29T03:55:02.163Z,60.05
2018-09-29T03:56:02.097Z,59.69
2018-09-29T03:57:02.091Z,59.69
2018-09-29T03:58:02.085Z,59.74
2018-09-29T03:59:02.124Z,59.47
2018-09-29T04:00:02.099Z,60.01
2018-09-29T04:01:02.075Z,60.22
2018-09-29T04:02:02.124Z,60.37
2018-09-29T04:03:02.067Z,60.04
2018-09-29T04:04:02.072Z,60.19
2018-09-29T04:05:02.115Z,60.14
2018-09-29T04:06:02.135Z,60.23
2018-09-29T04:07:02.074Z,60.27
2018-09-29T04:08:02.046Z,60.43
2018-09-29T04:09:02.095Z,60.51
2018-09-29T04:10:02.188Z,60.73
2018-09-29T04:11:02.080Z,60.61
2018-09-29T04:12:02.060Z,61.03
2018-09-29T04:13:02.112Z,61.15
2018-09-29T04:14:02.450Z,61.43
2018-09-29T04:15:02.332Z,61.59
2018-09-29T04:16:02.038Z,61.41
2018-09-29T04:17:02.120Z,61.38
2018-09-29T04:18:02.242Z,61.2
2018-09-29T04:19:02.013Z,61.08
2018-09-29T04:20:02.374Z,61.27
2018-09-29T04:21:02.051Z,61.24
2018-09-29T04:22:02.054Z,61.08
2018-09-29T04:23:02.273Z,60.85
2018-09-29T04:24:02.075Z,61
2018-09-29T04:25:02.405Z,61.15
2018-09-29T04:26:02.174Z,61.23
2018-09-29T04:27:02.141Z,61.5
2018-09-29T04:28:02.148Z,61.67
2018-09-29T04:29:02.085Z,61.6
2018-09-29T04:30:02.110Z,61.54
2018-09-29T04:31:02.062Z,61.78
2018-09-29T04:32:02.792Z,61.8
2018-09-29T04:33:02.202Z,62.26
2018-09-29T04:34:02.241Z,62.13
2018-09-29T04:35:02.150Z,62.06
2018-09-29T04:36:02.121Z,61.81
2018-09-29T04:37:02.052Z,61.65
2018-09-29T04:38:02.010Z,61.69
2018-09-29T04:39:02.070Z,61.82
2018-09-29T04:40:02.303Z,61.61
2018-09-29T04:41:02.244Z,61.76
2018-09-29T04:42:02.116Z,61.84
2018-09-29T04:43:02.490Z,61.49
2018-09-29T04:44:02.114Z,61.08
2018-09-29T04:45:02.242Z,61.39
2018-09-29T04:46:02.041Z,61.37
2018-09-29T04:47:02.084Z,61.12
2018-09-29T04:48:01.976Z,61.04
2018-09-29T04:49:02.337Z,60.93
2018-09-29T04:50:02.076Z,60.64
2018-09-29T04:51:02.105Z,60.94
2018-09-29T04:52:02.003Z,60.93
2018-09-29T04:53:02.063Z,61.06
2018-09-29T04:54:02.201Z,61.26
2018-09-29T04:55:02.172Z,61.07
2018-09-29T04:56:02.016Z,61.04
2018-09-29T04:57:02.144Z,61.63
2018-09-29T04:58:02.165Z,60.9
2018-09-29T04:59:02.067Z,61
2018-09-29T05:00:02.181Z,61.1
2018-09-29T05:01:02.151Z,61.39
2018-09-29T05:02:02.114Z,61.19
2018-09-29T05:03:02.062Z,61.12
2018-09-29T05:04:02.201Z,61.38
2018-09-29T05:05:02.069Z,61.32
2018-09-29T05:06:02.294Z,61.18
2018-09-29T05:07:02.057Z,61.11
2018-09-29T05:08:02.019Z,61.07
2018-09-29T05:09:02.137Z,61.05
2018-09-29T05:10:02.011Z,61.14
2018-09-29T05:11:02.038Z,60.99
2018-09-29T05:12:01.994Z,60.9
2018-09-29T05:13:02.039Z,61.32
2018-09-29T05:14:02.446Z,61.07
2018-09-29T05:15:02.081Z,61.28
2018-09-29T05:16:02.021Z,61.41
2018-09-29T05:17:02.009Z,61.22
2018-09-29T05:18:02.026Z,61.14
2018-09-29T05:19:01.971Z,61.02
2018-09-29T05:20:02.117Z,61.1
2018-09-29T05:21:02.024Z,61.37
2018-09-29T05:22:01.960Z,61.16
2018-09-29T05:23:02.137Z,61.54
2018-09-29T05:24:02.008Z,61.28
2018-09-29T05:25:02.015Z,61.33
2018-09-29T05:26:01.961Z,61.53
2018-09-29T05:27:02.125Z,61.11
2018-09-29T05:28:02.009Z,61.25
2018-09-29T05:29:02.251Z,61.3
2018-09-29T05:30:01.995Z,61.46
2018-09-29T05:31:02.324Z,61.84
2018-09-29T05:32:01.995Z,61.89
2018-09-29T05:33:01.966Z,61.73
2018-09-29T05:34:02.011Z,61.77
2018-09-29T05:35:01.954Z,61.92
2018-09-29T05:36:02.299Z,62.03
2018-09-29T05:37:02.334Z,61.95
2018-09-29T05:38:02.053Z,61.84
2018-09-29T05:39:02.310Z,61.99
2018-09-29T05:40:02.226Z,61.93
2018-09-29T05:41:02.335Z,61.86
2018-09-29T05:42:01.954Z,62.05
2018-09-29T05:43:01.918Z,62.11
2018-09-29T05:44:02.210Z,62.04
2018-09-29T05:45:02.325Z,62.59
2018-09-29T05:46:01.993Z,62.83
2018-09-29T05:47:02.160Z,62.87
2018-09-29T05:48:01.965Z,61.98
2018-09-29T05:49:02.015Z,62.07
2018-09-29T05:50:02.004Z,62.31
2018-09-29T05:51:02.086Z,62.76
2018-09-29T05:52:01.911Z,62.58
2018-09-29T05:53:02.189Z,62.88
2018-09-29T05:54:02.510Z,62.55
2018-09-29T05:55:01.984Z,62.36
2018-09-29T05:56:02.042Z,62.52
2018-09-29T05:57:01.911Z,62.54
2018-09-29T05:58:02.168Z,62.36
2018-09-29T05:59:01.990Z,62.52
2018-09-29T06:00:02.212Z,62.78
2018-09-29T06:01:02.109Z,62.47
2018-09-29T06:02:02.007Z,62.59
2018-09-29T06:03:02.316Z,62.97
2018-09-29T06:04:02.174Z,62.82
2018-09-29T06:05:02.744Z,63.01
2018-09-29T06:06:02.183Z,63.01
2018-09-29T06:07:02.430Z,63.19
2018-09-29T06:08:02.212Z,62.89
2018-09-29T06:09:02.047Z,63.26
2018-09-29T06:10:02.275Z,62.77
2018-09-29T06:11:02.029Z,62.86
2018-09-29T06:12:02.046Z,62.16
2018-09-29T06:13:02.238Z,62.38
2018-09-29T06:14:02.020Z,62.26
2018-09-29T06:15:01.872Z,61.97
2018-09-29T06:16:02.099Z,62.08
2018-09-29T06:17:02.243Z,61.85
2018-09-29T06:18:01.884Z,61.81
2018-09-29T06:19:02.099Z,61.45
2018-09-29T06:20:02.251Z,61.79
2018-09-29T06:21:02.413Z,61.84
2018-09-29T06:22:02.090Z,62.15
2018-09-29T06:23:01.978Z,62.17
2018-09-29T06:24:02.182Z,62.05
2018-09-29T06:25:01.895Z,62.41
2018-09-29T06:26:02.102Z,62.65
2018-09-29T06:27:02.058Z,62.79
2018-09-29T06:28:02.245Z,62.72
2018-09-29T06:29:02.154Z,62.43
2018-09-29T06:30:02.078Z,62.25
2018-09-29T06:31:02.068Z,62.1
2018-09-29T06:32:02.243Z,62.3
2018-09-29T06:33:01.911Z,61.92
2018-09-29T06:34:02.093Z,62
2018-09-29T06:35:01.924Z,61.96
2018-09-29T06:36:02.188Z,61.69
2018-09-29T06:37:02.106Z,61.68
2018-09-29T06:38:01.841Z,61.97
2018-09-29T06:39:02.266Z,61.91
2018-09-29T06:40:01.853Z,62.12
2018-09-29T06:41:02.041Z,62.14
2018-09-29T06:42:01.848Z,62.24
2018-09-29T06:43:02.225Z,62.13
2018-09-29T06:44:01.835Z,62.2
2018-09-29T06:45:01.847Z,62.23
2018-09-29T06:46:01.832Z,62.29
2018-09-29T06:47:01.836Z,61.93
2018-09-29T06:48:02.012Z,61.79
2018-09-29T06:49:01.791Z,62.24
2018-09-29T06:50:01.866Z,61.98
2018-09-29T06:51:02.013Z,61.84
2018-09-29T06:52:01.830Z,61.86
2018-09-29T06:53:01.810Z,61.87
2018-09-29T06:54:02.087Z,62.03
2018-09-29T06:55:01.862Z,62.2
2018-09-29T06:56:01.831Z,61.95
2018-09-29T06:57:01.814Z,61.99
2018-09-29T06:58:03.848Z,62.15
2018-09-29T06:59:02.095Z,61.88
2018-09-29T07:00:01.793Z,61.55
2018-09-29T07:01:01.945Z,61.47
2018-09-29T07:02:01.810Z,61.37
2018-09-29T07:03:02.207Z,61.19
2018-09-29T07:04:01.981Z,61.36
2018-09-29T07:05:02.304Z,61.21
2018-09-29T07:06:01.869Z,61.17
2018-09-29T07:07:01.851Z,60.66
2018-09-29T07:08:01.947Z,60.45
2018-09-29T07:09:01.819Z,60.55
2018-09-29T07:10:01.787Z,60.4
2018-09-29T07:11:01.910Z,60.54
2018-09-29T07:12:01.832Z,60.47
2018-09-29T07:13:02.388Z,60.45
2018-09-29T07:14:01.957Z,60.21
2018-09-29T07:15:01.836Z,60.48
2018-09-29T07:16:01.892Z,60.64
2018-09-29T07:17:01.774Z,60.13
2018-09-29T07:18:01.815Z,59.89
2018-09-29T07:19:01.894Z,59.92
2018-09-29T07:20:01.909Z,59.58
2018-09-29T07:21:01.802Z,59.66
2018-09-29T07:22:02.080Z,59.43
2018-09-29T07:23:01.786Z,59.39
2018-09-29T07:24:01.799Z,59.62
2018-09-29T07:25:01.960Z,59.49
2018-09-29T07:26:02.022Z,59.6
2018-09-29T07:27:01.838Z,59.97
2018-09-29T07:28:01.788Z,59.75
2018-09-29T07:29:02.030Z,59.65
2018-09-29T07:30:01.857Z,59.68
2018-09-29T07:31:02.044Z,59.24
2018-09-29T07:32:01.849Z,59.15
2018-09-29T07:33:01.993Z,58.95
2018-09-29T07:34:01.898Z,59.4
2018-09-29T07:35:01.777Z,59.13
2018-09-29T07:36:01.795Z,59.35
2018-09-29T07:37:02.008Z,59.23
2018-09-29T07:38:01.759Z,58.95
2018-09-29T07:39:02.203Z,58.94
2018-09-29T07:40:01.805Z,58.92
2018-09-29T07:41:02.016Z,58.73
2018-09-29T07:42:01.915Z,58.33
2018-09-29T07:43:01.810Z,58.63
2018-09-29T07:44:02.137Z,58.83
2018-09-29T07:45:02.015Z,58.59
2018-09-29T07:46:01.798Z,58.56
2018-09-29T07:47:01.752Z,58.94
2018-09-29T07:48:01.736Z,58.71
2018-09-29T07:49:02.138Z,58.97
2018-09-29T07:50:01.775Z,58.86
2018-09-29T07:51:01.759Z,58.07
2018-09-29T07:52:01.750Z,57.93
2018-09-29T07:53:01.727Z,58.18
2018-09-29T07:54:01.966Z,58.07
2018-09-29T07:55:02.044Z,57.94
2018-09-29T07:56:02.049Z,57.71
2018-09-29T07:57:01.751Z,57.85
2018-09-29T07:58:01.892Z,57.76
2018-09-29T07:59:01.766Z,57.3
2018-09-29T08:00:01.972Z,57.23
2018-09-29T08:01:01.933Z,56.17
2018-09-29T08:02:01.774Z,56.13
2018-09-29T08:03:01.733Z,55.63
2018-09-29T08:04:01.717Z,55.78
2018-09-29T08:05:01.682Z,55.44
2018-09-29T08:06:01.690Z,55.31
2018-09-29T08:07:01.729Z,55.26
2018-09-29T08:08:01.725Z,55.11
2018-09-29T08:09:01.758Z,54.9
2018-09-29T08:10:01.741Z,54.62
2018-09-29T08:11:01.718Z,54.05
2018-09-29T08:12:01.773Z,54.48
2018-09-29T08:13:01.681Z,54.36
2018-09-29T08:14:01.685Z,54.36
2018-09-29T08:15:01.693Z,54.11
2018-09-29T08:16:01.699Z,53.82
2018-09-29T08:17:01.708Z,54.09
2018-09-29T08:18:01.703Z,53.93
2018-09-29T08:19:01.701Z,54.29
2018-09-29T08:20:01.772Z,54.17
2018-09-29T08:21:01.689Z,54.34
2018-09-29T08:22:01.678Z,53.84
2018-09-29T08:23:01.689Z,54.2
2018-09-29T08:24:02.198Z,53.64
2018-09-29T08:25:01.696Z,53.31
2018-09-29T08:26:01.726Z,53.79
2018-09-29T08:27:02.112Z,53.77
2018-09-29T08:28:01.664Z,53.47
2018-09-29T08:29:01.659Z,53.06
2018-09-29T08:30:01.677Z,53.12
2018-09-29T08:31:01.891Z,53.03
2018-09-29T08:32:01.809Z,53.38
2018-09-29T08:33:01.968Z,53.06
2018-09-29T08:34:01.781Z,52.55
2018-09-29T08:35:01.681Z,52.29
2018-09-29T08:36:01.744Z,51.88
2018-09-29T08:37:01.818Z,52
2018-09-29T08:38:01.751Z,51.83
2018-09-29T08:39:01.661Z,51.7
2018-09-29T08:40:01.672Z,51.54
2018-09-29T08:41:01.818Z,52.03
2018-09-29T08:42:01.672Z,51.96
2018-09-29T08:43:01.697Z,51.02
2018-09-29T08:44:01.731Z,51.06
2018-09-29T08:45:01.999Z,51.8
2018-09-29T08:46:01.793Z,51.64
2018-09-29T08:47:01.670Z,51.46
2018-09-29T08:48:01.669Z,51.7
2018-09-29T08:49:01.713Z,50.95
2018-09-29T08:50:01.848Z,51.15
2018-09-29T08:51:02.054Z,51.05
2018-09-29T08:52:02.044Z,51.48
2018-09-29T08:53:01.789Z,51.53
2018-09-29T08:54:01.749Z,51.73
2018-09-29T08:55:01.829Z,52.19
2018-09-29T08:56:02.307Z,51.56
2018-09-29T08:57:01.667Z,50.83
2018-09-29T08:58:01.731Z,51.22
2018-09-29T08:59:01.792Z,51.32
2018-09-29T09:00:01.752Z,50.21
2018-09-29T09:01:01.658Z,50.07
2018-09-29T09:02:01.779Z,50.01
2018-09-29T09:03:01.775Z,49.42
2018-09-29T09:04:02.349Z,49.47
2018-09-29T09:05:01.608Z,49.22
2018-09-29T09:06:01.692Z,49.44
2018-09-29T09:07:01.603Z,49.23
2018-09-29T09:08:01.645Z,49.82
2018-09-29T09:09:01.682Z,49.68
2018-09-29T09:10:01.718Z,49.3
2018-09-29T09:11:01.956Z,49.5
2018-09-29T09:12:01.644Z,48.25
2018-09-29T09:13:01.661Z,47.61
2018-09-29T09:14:01.987Z,47.4
2018-09-29T09:15:01.736Z,47.37
2018-09-29T09:16:01.733Z,48.11
2018-09-29T09:17:02.394Z,47.92
2018-09-29T09:18:01.654Z,47.13
2018-09-29T09:19:01.605Z,46.74
2018-09-29T09:20:01.610Z,47.23
2018-09-29T09:21:01.764Z,47.17
2018-09-29T09:22:01.660Z,46.32
2018-09-29T09:23:01.881Z,46.32
2018-09-29T09:24:01.755Z,46.67
2018-09-29T09:25:01.727Z,46.64
2018-09-29T09:26:01.590Z,46.36
2018-09-29T09:27:01.709Z,46.16
2018-09-29T09:28:01.823Z,46.1
2018-09-29T09:29:01.697Z,46.3
2018-09-29T09:30:01.739Z,46.38
2018-09-29T09:31:01.602Z,46.49
2018-09-29T09:32:01.726Z,46.38
2018-09-29T09:33:01.637Z,46.55
2018-09-29T09:34:01.589Z,46.82
2018-09-29T09:35:01.631Z,47.05
2018-09-29T09:36:01.571Z,46.49
2018-09-29T09:37:01.679Z,46.36
2018-09-29T09:38:01.642Z,45.79
2018-09-29T09:39:01.643Z,45.86
2018-09-29T09:40:01.625Z,44.85
2018-09-29T09:41:01.577Z,44.79
2018-09-29T09:42:01.629Z,44.05
2018-09-29T09:43:01.651Z,44.38
2018-09-29T09:44:01.576Z,44.51
2018-09-29T09:45:01.604Z,44.86
2018-09-29T09:46:01.559Z,44.68
2018-09-29T09:47:01.628Z,44.75
2018-09-29T09:48:01.644Z,44.28
2018-09-29T09:50:01.977Z,44.44
2018-09-29T09:51:01.675Z,43.67
2018-09-29T09:52:01.571Z,44.49
2018-09-29T09:53:01.580Z,45.15
2018-09-29T09:54:01.633Z,44.89
2018-09-29T09:55:01.696Z,44.8
2018-09-29T09:56:02.001Z,44.81
2018-09-29T09:57:01.605Z,44.73
2018-09-29T09:58:01.656Z,44.36
2018-09-29T09:59:03.190Z,44.45
2018-09-29T10:00:03.839Z,44.08
2018-09-29T10:01:01.551Z,43.97
2018-09-29T10:02:01.563Z,44.01
2018-09-29T10:03:01.848Z,43.64
2018-09-29T10:04:01.644Z,43.5
2018-09-29T10:05:01.606Z,44.13
2018-09-29T10:06:01.639Z,43.37
2018-09-29T10:07:01.559Z,43.56
2018-09-29T10:08:01.786Z,44.18
2018-09-29T10:09:01.659Z,44.01
2018-09-29T10:10:01.596Z,43.96
2018-09-29T10:11:01.604Z,44.54
2018-09-29T10:12:01.582Z,44.16
2018-09-29T10:13:01.655Z,43.98
2018-09-29T10:14:02.200Z,42.98
2018-09-29T10:15:01.551Z,42.67
2018-09-29T10:16:01.608Z,43.18
2018-09-29T10:17:01.676Z,42.52
2018-09-29T10:18:01.592Z,41.7
2018-09-29T10:19:01.562Z,42.84
2018-09-29T10:20:01.738Z,41.66
2018-09-29T10:21:01.560Z,41.46
2018-09-29T10:22:01.603Z,41.41
2018-09-29T10:23:01.689Z,41.43
2018-09-29T10:24:01.570Z,40.96
2018-09-29T10:25:02.630Z,40.37
2018-09-29T10:26:01.812Z,40.63
2018-09-29T10:27:01.636Z,40.84
2018-09-29T10:28:01.561Z,41.31
2018-09-29T10:29:01.593Z,41.45
2018-09-29T10:30:01.531Z,41.13
2018-09-29T10:31:01.568Z,40.27
2018-09-29T10:32:01.712Z,39.45
2018-09-29T10:33:01.622Z,38.77
2018-09-29T10:34:01.635Z,38.61
2018-09-29T10:35:01.721Z,38.83
2018-09-29T10:36:01.511Z,39.37
2018-09-29T10:37:01.544Z,39.82
2018-09-29T10:38:01.543Z,39.35
2018-09-29T10:39:01.688Z,38.76
2018-09-29T10:40:01.815Z,38.24
2018-09-29T10:41:01.689Z,38.58
2018-09-29T10:42:01.520Z,37.34
2018-09-29T10:43:01.697Z,38.26
2018-09-29T10:44:01.762Z,37.75
2018-09-29T10:45:01.628Z,38.32
2018-09-29T10:46:01.950Z,38.7
2018-09-29T10:47:01.624Z,38.29
2018-09-29T10:48:01.972Z,38.63
2018-09-29T10:49:01.566Z,38.3
2018-09-29T10:50:01.717Z,38.31
2018-09-29T10:51:01.608Z,38.58
2018-09-29T10:52:01.679Z,38.25
2018-09-29T10:53:02.216Z,37.76
2018-09-29T10:54:01.573Z,37.52
2018-09-29T10:55:01.566Z,36.82
2018-09-29T10:56:01.500Z,37.31
2018-09-29T10:57:01.538Z,36.18
2018-09-29T10:58:01.533Z,36.81
2018-09-29T10:59:01.657Z,36.65
2018-09-29T11:00:01.615Z,36.97
2018-09-29T11:01:01.508Z,36.36
2018-09-29T11:02:01.562Z,36.38
2018-09-29T11:03:01.601Z,36.89
2018-09-29T11:04:01.598Z,36.21
2018-09-29T11:05:01.920Z,36.59
2018-09-29T11:06:01.894Z,36.64
2018-09-29T11:07:01.521Z,37.25
2018-09-29T11:08:01.605Z,36.42
2018-09-29T11:09:01.501Z,37.15
2018-09-29T11:10:01.601Z,36.55
2018-09-29T11:11:02.141Z,36.77
2018-09-29T11:12:01.509Z,36.75
2018-09-29T11:13:01.497Z,37.29
2018-09-29T11:14:01.494Z,37.17
2018-09-29T11:15:01.497Z,37.46
2018-09-29T11:16:01.620Z,38.07
2018-09-29T11:17:01.495Z,37.45
2018-09-29T11:18:01.507Z,37.48
2018-09-29T11:19:01.496Z,37.62
2018-09-29T11:20:01.567Z,37.38
2018-09-29T11:21:02.204Z,37.38
2018-09-29T11:22:01.503Z,37.47
2018-09-29T11:23:01.442Z,37.18
2018-09-29T11:24:01.733Z,36.69
2018-09-29T11:25:01.505Z,37.01
2018-09-29T11:26:01.506Z,36.84
2018-09-29T11:27:01.533Z,36.86
2018-09-29T11:28:01.689Z,36.93
2018-09-29T11:29:01.568Z,36.93
2018-09-29T11:30:01.708Z,36.15
2018-09-29T11:31:01.738Z,36.45
2018-09-29T11:32:01.471Z,36.09
2018-09-29T11:33:01.581Z,35.77
2018-09-29T11:34:01.437Z,35.7
2018-09-29T11:35:01.651Z,36.12
2018-09-29T11:36:01.595Z,36.29
2018-09-29T11:37:01.546Z,35.49
2018-09-29T11:38:02.036Z,35.83
2018-09-29T11:39:01.593Z,35.73
2018-09-29T11:40:01.495Z,35.56
2018-09-29T11:41:01.598Z,35
2018-09-29T11:42:01.604Z,35.21
2018-09-29T11:43:01.806Z,34.8
2018-09-29T11:44:01.550Z,34.11
2018-09-29T11:45:01.500Z,34.41
2018-09-29T11:46:01.595Z,34.79
2018-09-29T11:47:02.418Z,34.39
2018-09-29T11:48:01.464Z,34.36
2018-09-29T11:49:01.584Z,34.92
2018-09-29T11:50:01.596Z,34.81
2018-09-29T11:51:01.491Z,35.28
2018-09-29T11:52:01.648Z,34.17
2018-09-29T11:53:01.811Z,34.75
2018-09-29T11:54:01.544Z,34.64
2018-09-29T11:55:01.772Z,34.64
2018-09-29T11:56:02.041Z,34.59
2018-09-29T11:57:01.496Z,34.51
2018-09-29T11:58:01.486Z,34.32
2018-09-29T11:59:01.447Z,34.38
2018-09-29T12:00:01.430Z,34.5
2018-09-29T12:01:01.552Z,34.02
2018-09-29T12:02:01.722Z,34.15
2018-09-29T12:03:01.529Z,34.83
2018-09-29T12:04:01.587Z,34.9
2018-09-29T12:05:01.620Z,34.5
2018-09-29T12:06:02.259Z,34.11
2018-09-29T12:07:01.682Z,34.23
2018-09-29T12:08:01.952Z,34.54
2018-09-29T12:09:01.440Z,35.05
2018-09-29T12:10:01.888Z,34.47
2018-09-29T12:11:01.407Z,34.6
2018-09-29T12:12:01.469Z,34.84
2018-09-29T12:13:01.452Z,34.77
2018-09-29T12:14:02.013Z,34.54
2018-09-29T12:15:01.413Z,35.56
2018-09-29T12:16:01.362Z,35.28
2018-09-29T12:17:02.416Z,35.32
2018-09-29T12:18:01.484Z,34.22
2018-09-29T12:19:01.529Z,34.21
2018-09-29T12:20:01.587Z,33.65
2018-09-29T12:21:01.725Z,33.64
2018-09-29T12:22:01.441Z,34.38
2018-09-29T12:23:02.544Z,34.52
2018-09-29T12:24:01.595Z,34.3
2018-09-29T12:25:02.417Z,33.57
2018-09-29T12:26:01.599Z,33.31
2018-09-29T12:27:01.601Z,32.85
2018-09-29T12:28:01.926Z,32.82
2018-09-29T12:29:01.717Z,33.3
2018-09-29T12:30:01.468Z,33.32
2018-09-29T12:31:01.728Z,33.58
2018-09-29T12:32:01.856Z,33.76
2018-09-29T12:33:03.993Z,33.83
2018-09-29T12:34:01.422Z,33.68
2018-09-29T12:35:01.574Z,33.77
2018-09-29T12:36:01.549Z,33.58
2018-09-29T12:37:56.649Z,33.22
2018-09-29T12:38:56.987Z,33.16
2018-09-29T12:39:58.035Z,32.72
2018-09-29T12:40:57.006Z,32.77
2018-09-29T12:41:57.000Z,33.06
2018-09-29T12:42:58.052Z,32.9
2018-09-29T12:43:57.825Z,33.26
2018-09-29T12:44:57.706Z,32.41
2018-09-29T12:45:57.026Z,32.78
2018-09-29T12:46:57.030Z,33.41
2018-09-29T12:47:56.951Z,33.19
2018-09-29T12:48:56.806Z,32.88
2018-09-29T12:49:56.963Z,33.22
2018-09-29T12:50:56.969Z,33.09
2018-09-29T12:51:57.287Z,32.74
2018-09-29T12:52:57.207Z,31.54
2018-09-29T12:53:57.184Z,32.26
2018-09-29T12:54:56.861Z,32.08
2018-09-29T12:55:56.992Z,32.75
2018-09-29T12:56:57.092Z,32.99